createdAt,value
2017-08-06T00:01:56.513Z,82.90
2017-08-06T00:04:25.376Z,82.90
2017-08-06T00:06:54.274Z,82.60
2017-08-06T00:09:23.178Z,82.60
2017-08-06T00:11:52.086Z,82.60
2017-08-06T00:14:20.981Z,82.70
2017-08-06T00:16:49.882Z,82.70
2017-08-06T00:19:18.774Z,82.40
2017-08-06T00:21:47.663Z,82.40
2017-08-06T00:24:16.567Z,82.20
2017-08-06T00:26:45.448Z,82.00
2017-08-06T00:29:14.351Z,82.10
2017-08-06T00:31:43.237Z,82.30
2017-08-06T00:34:12.173Z,82.40
2017-08-06T00:36:41.066Z,82.40
2017-08-06T00:39:09.952Z,82.50
2017-08-06T00:41:38.843Z,82.40
2017-08-06T00:44:07.734Z,82.10
2017-08-06T00:46:36.633Z,82.30
2017-08-06T00:49:05.526Z,82.50
2017-08-06T00:51:34.391Z,82.50
2017-08-06T00:54:04.046Z,82.30
2017-08-06T00:56:32.936Z,82.20
2017-08-06T00:59:01.810Z,82.10
2017-08-06T01:01:30.682Z,82.20
2017-08-06T01:03:59.563Z,82.00
2017-08-06T01:06:28.457Z,82.10
2017-08-06T01:08:57.354Z,82.40
2017-08-06T01:11:26.254Z,82.50
2017-08-06T01:13:55.150Z,82.50
2017-08-06T01:16:24.046Z,82.40
2017-08-06T01:18:52.929Z,82.80
2017-08-06T01:21:21.820Z,82.70
2017-08-06T01:23:50.720Z,82.70
2017-08-06T01:26:19.608Z,82.70
2017-08-06T01:28:48.609Z,82.60
2017-08-06T01:31:17.514Z,82.60
2017-08-06T01:33:46.060Z,82.60
2017-08-06T01:36:14.954Z,82.50
2017-08-06T01:38:43.864Z,82.70
2017-08-06T01:41:12.755Z,82.60
2017-08-06T01:43:41.650Z,82.50
2017-08-06T01:46:09.844Z,82.30
2017-08-06T01:48:39.102Z,82.40
2017-08-06T01:51:08.009Z,82.30
2017-08-06T01:53:36.878Z,82.40
2017-08-06T01:56:06.527Z,82.00
2017-08-06T01:58:35.417Z,82.00
2017-08-06T02:01:03.979Z,81.90
2017-08-06T02:03:32.857Z,82.00
2017-08-06T02:06:02.525Z,81.90
2017-08-06T02:08:31.442Z,81.80
2017-08-06T02:11:00.342Z,81.90
2017-08-06T02:13:30.014Z,82.60
2017-08-06T02:15:58.916Z,82.10
2017-08-06T02:18:27.776Z,81.90
2017-08-06T02:20:56.665Z,81.80
2017-08-06T02:23:25.582Z,81.70
2017-08-06T02:25:54.494Z,81.90
2017-08-06T02:28:23.390Z,81.40
2017-08-06T02:30:52.289Z,81.20
2017-08-06T02:33:21.954Z,81.60
2017-08-06T02:35:50.864Z,81.10
2017-08-06T02:38:19.756Z,81.10
2017-08-06T02:40:48.666Z,81.10
2017-08-06T02:43:17.529Z,81.10
2017-08-06T02:45:46.293Z,81.10
2017-08-06T02:48:15.194Z,81.10
2017-08-06T02:50:44.092Z,81.00
2017-08-06T02:53:13.005Z,81.10
2017-08-06T02:55:41.907Z,80.90
2017-08-06T02:58:10.817Z,80.70
2017-08-06T03:00:39.748Z,80.30
2017-08-06T03:03:08.654Z,80.20
2017-08-06T03:05:37.548Z,80.30
2017-08-06T03:08:06.462Z,80.20
2017-08-06T03:10:35.372Z,80.00
2017-08-06T03:13:05.044Z,79.30
2017-08-06T03:15:33.954Z,79.20
2017-08-06T03:18:02.848Z,78.80
2017-08-06T03:20:31.741Z,78.60
2017-08-06T03:23:00.637Z,78.60
2017-08-06T03:25:29.525Z,78.50
2017-08-06T03:27:58.392Z,78.30
2017-08-06T03:30:27.289Z,77.60
2017-08-06T03:32:56.195Z,77.20
2017-08-06T03:35:25.096Z,77.00
2017-08-06T03:37:53.988Z,76.90
2017-08-06T03:40:22.874Z,76.40
2017-08-06T03:42:51.760Z,76.20
2017-08-06T03:45:20.667Z,75.90
2017-08-06T03:47:49.557Z,75.70
2017-08-06T03:50:18.445Z,75.60
2017-08-06T03:52:47.347Z,75.80
2017-08-06T03:55:17.009Z,75.80
2017-08-06T03:57:45.900Z,75.80
2017-08-06T04:00:14.814Z,76.00
2017-08-06T04:02:43.717Z,75.90
2017-08-06T04:05:12.626Z,76.10
2017-08-06T04:07:42.302Z,76.10
2017-08-06T04:10:11.210Z,76.00
2017-08-06T04:12:40.123Z,76.00
2017-08-06T04:15:09.768Z,76.10
2017-08-06T04:17:38.670Z,76.10
2017-08-06T04:20:07.521Z,75.90
2017-08-06T04:22:37.183Z,75.30
2017-08-06T04:25:06.072Z,75.30
2017-08-06T04:27:34.976Z,74.90
2017-08-06T04:30:03.532Z,74.70
2017-08-06T04:32:32.440Z,74.90
2017-08-06T04:35:01.334Z,74.80
2017-08-06T04:37:30.251Z,74.90
2017-08-06T04:39:59.112Z,74.80
2017-08-06T04:42:28.012Z,74.80
2017-08-06T04:44:56.924Z,74.70
2017-08-06T04:47:25.818Z,74.80
2017-08-06T04:49:54.709Z,74.50
2017-08-06T04:52:23.606Z,74.20
2017-08-06T04:54:52.493Z,73.90
2017-08-06T04:57:21.395Z,73.80
2017-08-06T04:59:50.291Z,73.80
2017-08-06T05:02:19.190Z,73.60
2017-08-06T05:04:48.859Z,73.00
2017-08-06T05:07:17.740Z,73.00
2017-08-06T05:09:46.633Z,73.10
2017-08-06T05:12:15.496Z,73.20
2017-08-06T05:14:44.396Z,73.30
2017-08-06T05:17:13.294Z,73.30
2017-08-06T05:19:42.149Z,73.10
2017-08-06T05:22:10.994Z,73.10
2017-08-06T05:24:39.858Z,73.10
2017-08-06T05:27:08.745Z,72.80
2017-08-06T05:29:37.611Z,73.10
2017-08-06T05:32:06.506Z,72.90
2017-08-06T05:34:35.398Z,72.70
2017-08-06T05:37:05.142Z,72.60
2017-08-06T05:39:34.045Z,72.40
2017-08-06T05:42:02.947Z,72.30
2017-08-06T05:44:31.845Z,72.20
2017-08-06T05:47:00.755Z,72.00
2017-08-06T05:49:37.139Z,72.00
2017-08-06T05:52:06.026Z,72.10
2017-08-06T05:54:34.921Z,72.10
2017-08-06T05:57:04.606Z,72.10
2017-08-06T05:59:33.514Z,72.00
2017-08-06T06:02:02.418Z,72.10
2017-08-06T06:04:32.088Z,71.70
2017-08-06T06:07:00.996Z,71.60
2017-08-06T06:09:29.884Z,71.40
2017-08-06T06:11:58.792Z,71.40
2017-08-06T06:14:27.693Z,71.40
2017-08-06T06:16:57.361Z,71.00
2017-08-06T06:19:26.265Z,70.90
2017-08-06T06:21:55.980Z,71.00
2017-08-06T06:36:04.830Z,69.40
2017-08-06T06:47:03.606Z,67.20
2017-08-06T06:49:46.180Z,66.50
2017-08-06T06:52:33.321Z,66.40
2017-08-06T07:01:03.098Z,65.50
2017-08-06T07:03:35.450Z,65.60
2017-08-06T07:06:04.802Z,65.60
2017-08-06T07:08:34.848Z,65.70
2017-08-06T07:11:03.730Z,65.70
2017-08-06T07:13:32.637Z,65.50
2017-08-06T07:16:01.529Z,65.10
2017-08-06T07:18:30.455Z,65.00
2017-08-06T07:20:59.341Z,64.90
2017-08-06T07:23:28.216Z,64.50
2017-08-06T07:25:57.876Z,64.20
2017-08-06T07:28:26.769Z,64.00
2017-08-06T07:30:55.662Z,63.70
2017-08-06T07:33:24.559Z,63.90
2017-08-06T07:35:53.265Z,64.00
2017-08-06T07:38:22.142Z,64.10
2017-08-06T07:40:51.052Z,63.90
2017-08-06T07:43:19.950Z,63.90
2017-08-06T07:45:49.608Z,61.90
2017-08-06T07:48:18.500Z,62.40
2017-08-06T07:50:47.418Z,62.60
2017-08-06T07:53:16.319Z,63.00
2017-08-06T07:55:45.194Z,63.20
2017-08-06T07:58:14.087Z,63.20
2017-08-06T08:00:42.978Z,63.30
2017-08-06T08:03:11.869Z,63.30
2017-08-06T08:05:40.731Z,62.70
2017-08-06T08:08:09.633Z,63.00
2017-08-06T08:10:38.532Z,62.70
2017-08-06T08:13:07.418Z,62.70
2017-08-06T08:15:36.318Z,62.80
2017-08-06T08:18:04.878Z,61.90
2017-08-06T08:20:33.766Z,61.70
2017-08-06T08:23:02.646Z,61.80
2017-08-06T08:25:31.505Z,61.10
2017-08-06T08:28:00.403Z,61.20
2017-08-06T08:30:29.948Z,60.40
2017-08-06T08:32:58.863Z,60.30
2017-08-06T08:35:27.755Z,59.80
2017-08-06T08:37:57.346Z,59.50
2017-08-06T08:40:27.122Z,60.00
2017-08-06T08:42:57.669Z,57.90
2017-08-06T08:45:27.324Z,58.60
2017-08-06T08:47:56.223Z,58.60
2017-08-06T08:50:25.110Z,58.60
2017-08-06T08:52:54.006Z,58.20
2017-08-06T08:55:22.906Z,57.80
2017-08-06T08:57:51.799Z,57.80
2017-08-06T09:00:20.680Z,57.30
2017-08-06T09:02:49.570Z,57.20
2017-08-06T09:05:18.482Z,57.30
2017-08-06T09:07:47.365Z,57.50
2017-08-06T09:10:16.209Z,57.10
2017-08-06T09:12:45.094Z,57.40
2017-08-06T09:15:14.913Z,57.00
2017-08-06T09:17:43.819Z,57.40
2017-08-06T09:20:12.713Z,56.90
2017-08-06T09:22:41.623Z,56.80
2017-08-06T09:25:10.528Z,56.10
2017-08-06T09:27:39.415Z,55.70
2017-08-06T09:30:08.310Z,55.50
2017-08-06T09:32:37.188Z,56.00
2017-08-06T09:35:06.055Z,55.90
2017-08-06T09:37:34.948Z,56.10
2017-08-06T09:40:03.839Z,55.90
2017-08-06T09:42:32.720Z,55.70
2017-08-06T09:45:01.610Z,55.60
2017-08-06T09:47:30.489Z,54.90
2017-08-06T09:49:59.391Z,54.20
2017-08-06T09:52:28.278Z,53.90
2017-08-06T09:54:57.911Z,53.30
2017-08-06T09:57:26.773Z,53.30
2017-08-06T09:59:56.438Z,53.30
2017-08-06T10:02:25.312Z,53.30
2017-08-06T10:04:54.194Z,53.10
2017-08-06T10:07:23.338Z,53.10
2017-08-06T10:09:52.225Z,52.60
2017-08-06T10:12:21.097Z,52.20
2017-08-06T10:14:49.980Z,51.80
2017-08-06T10:17:18.831Z,51.90
2017-08-06T10:19:47.713Z,52.20
2017-08-06T10:22:17.328Z,51.20
2017-08-06T10:24:46.226Z,51.10
2017-08-06T10:27:15.112Z,50.40
2017-08-06T10:29:44.010Z,50.50
2017-08-06T10:32:12.867Z,49.90
2017-08-06T10:34:41.758Z,49.70
2017-08-06T10:37:10.649Z,49.40
2017-08-06T10:39:39.533Z,48.90
2017-08-06T10:42:08.396Z,48.90
2017-08-06T10:44:37.287Z,48.90
2017-08-06T10:47:06.182Z,49.10
2017-08-06T10:49:35.155Z,49.20
2017-08-06T10:52:04.031Z,49.50
2017-08-06T10:54:33.693Z,49.20
2017-08-06T10:57:02.584Z,49.20
2017-08-06T10:59:31.472Z,49.00
2017-08-06T11:02:00.334Z,49.50
2017-08-06T11:04:29.224Z,49.80
2017-08-06T11:06:58.089Z,49.90
2017-08-06T11:09:27.729Z,49.20
2017-08-06T11:11:56.571Z,49.20
2017-08-06T11:14:26.208Z,48.60
2017-08-06T11:16:55.110Z,48.50
2017-08-06T11:19:24.011Z,48.70
2017-08-06T11:21:52.863Z,49.30
2017-08-06T11:24:22.511Z,48.00
2017-08-06T11:26:51.403Z,48.00
2017-08-06T11:29:20.252Z,47.40
2017-08-06T11:31:49.901Z,47.70
2017-08-06T11:34:18.783Z,47.40
2017-08-06T11:36:47.678Z,47.50
2017-08-06T11:39:16.570Z,47.70
2017-08-06T11:41:45.460Z,47.10
2017-08-06T11:44:14.341Z,46.70
2017-08-06T11:46:43.247Z,46.60
2017-08-06T11:49:12.150Z,46.40
2017-08-06T11:51:41.032Z,46.90
2017-08-06T11:54:09.921Z,47.10
2017-08-06T11:56:38.810Z,47.20
2017-08-06T11:59:07.661Z,46.80
2017-08-06T12:01:36.549Z,46.50
2017-08-06T12:04:05.446Z,45.90
2017-08-06T12:06:34.334Z,45.80
2017-08-06T12:09:03.231Z,45.00
2017-08-06T12:11:32.117Z,44.20
2017-08-06T12:14:01.010Z,44.50
2017-08-06T12:16:29.908Z,44.40
2017-08-06T12:18:58.823Z,43.90
2017-08-06T12:21:27.717Z,43.60
2017-08-06T12:23:57.891Z,44.30
2017-08-06T12:26:26.772Z,44.80
2017-08-06T12:28:55.676Z,44.70
2017-08-06T12:31:24.557Z,45.00
2017-08-06T12:33:53.458Z,45.00
2017-08-06T12:36:22.350Z,45.60
2017-08-06T12:38:51.229Z,44.70
2017-08-06T12:41:20.134Z,44.60
2017-08-06T12:43:49.017Z,45.10
2017-08-06T12:46:17.872Z,44.60
2017-08-06T12:48:46.756Z,44.30
2017-08-06T12:51:15.617Z,44.40
2017-08-06T12:53:44.498Z,43.90
2017-08-06T12:56:13.346Z,43.80
2017-08-06T12:58:42.238Z,43.70
2017-08-06T13:01:11.130Z,44.00
2017-08-06T13:03:39.978Z,43.50
2017-08-06T13:06:09.642Z,43.50
2017-08-06T13:08:38.548Z,43.40
2017-08-06T13:11:07.447Z,43.10
2017-08-06T13:13:36.304Z,42.90
2017-08-06T13:16:05.171Z,42.80
2017-08-06T13:18:34.838Z,42.20
2017-08-06T13:21:03.699Z,42.20
2017-08-06T13:23:32.600Z,41.80
2017-08-06T13:26:01.500Z,41.40
2017-08-06T13:28:30.385Z,41.20
2017-08-06T13:30:59.294Z,40.60
2017-08-06T13:33:28.183Z,40.80
2017-08-06T13:35:57.565Z,40.60
2017-08-06T13:38:26.458Z,40.50
2017-08-06T13:40:55.366Z,40.20
2017-08-06T13:43:24.272Z,39.60
2017-08-06T13:45:53.160Z,39.00
2017-08-06T13:48:22.028Z,39.20
2017-08-06T13:50:50.934Z,39.40
2017-08-06T13:53:19.827Z,39.20
2017-08-06T13:55:48.727Z,39.10
2017-08-06T13:58:17.618Z,38.90
2017-08-06T14:00:46.509Z,38.90
2017-08-06T14:03:15.394Z,39.10
2017-08-06T14:05:44.288Z,39.50
2017-08-06T14:08:13.199Z,39.00
2017-08-06T14:10:42.095Z,39.20
2017-08-06T14:13:10.953Z,39.40
2017-08-06T14:15:39.815Z,39.70
2017-08-06T14:18:08.713Z,39.80
2017-08-06T14:20:38.216Z,40.10
2017-08-06T14:23:07.122Z,40.10
2017-08-06T14:25:36.029Z,39.80
2017-08-06T14:28:04.940Z,40.20
2017-08-06T14:30:33.502Z,39.90
2017-08-06T14:33:02.418Z,39.80
2017-08-06T14:35:31.313Z,39.80
2017-08-06T14:38:00.207Z,39.70
2017-08-06T14:40:29.831Z,39.60
2017-08-06T14:42:59.489Z,39.00
2017-08-06T14:45:28.394Z,39.00
2017-08-06T14:47:57.282Z,39.10
2017-08-06T14:50:26.185Z,39.30
2017-08-06T14:52:55.086Z,39.00
2017-08-06T14:55:23.986Z,38.80
2017-08-06T14:57:52.886Z,38.50
2017-08-06T15:00:21.777Z,38.40
2017-08-06T15:02:50.685Z,38.40
2017-08-06T15:05:20.342Z,38.70
2017-08-06T15:07:49.208Z,38.70
2017-08-06T15:10:18.060Z,39.00
2017-08-06T15:12:47.743Z,38.70
2017-08-06T15:15:16.639Z,38.70
2017-08-06T15:17:45.529Z,38.80
2017-08-06T15:20:14.421Z,38.50
2017-08-06T15:22:43.280Z,38.40
2017-08-06T15:25:12.175Z,37.80
2017-08-06T15:27:41.066Z,38.20
2017-08-06T15:30:09.948Z,38.10
2017-08-06T15:32:38.812Z,38.10
2017-08-06T15:35:08.472Z,38.10
2017-08-06T15:37:37.380Z,37.90
2017-08-06T15:40:06.241Z,37.60
2017-08-06T15:42:35.133Z,37.70
2017-08-06T15:45:04.026Z,37.90
2017-08-06T15:47:32.909Z,38.20
2017-08-06T15:50:01.809Z,37.90
2017-08-06T15:52:30.741Z,37.80
2017-08-06T15:55:00.123Z,38.00
2017-08-06T15:57:29.010Z,38.10
2017-08-06T15:59:57.905Z,38.40
2017-08-06T16:02:26.809Z,38.70
2017-08-06T16:04:55.701Z,38.60
2017-08-06T16:07:24.588Z,38.50
2017-08-06T16:09:53.483Z,38.90
2017-08-06T16:12:22.424Z,38.70
2017-08-06T16:14:51.319Z,38.80
2017-08-06T16:17:20.221Z,39.30
2017-08-06T16:19:49.110Z,39.30
2017-08-06T16:22:17.993Z,39.70
2017-08-06T16:24:46.887Z,39.50
2017-08-06T16:27:15.784Z,39.60
2017-08-06T16:29:44.668Z,40.00
2017-08-06T16:32:13.568Z,40.00
2017-08-06T16:34:42.467Z,40.20
2017-08-06T16:37:11.352Z,40.00
2017-08-06T16:39:40.243Z,40.10
2017-08-06T16:42:09.136Z,40.40
2017-08-06T16:44:38.131Z,40.40
2017-08-06T16:47:07.021Z,40.60
2017-08-06T16:49:35.935Z,40.90
2017-08-06T16:52:04.841Z,40.50
2017-08-06T16:54:33.691Z,40.30
2017-08-06T16:57:02.584Z,40.30
2017-08-06T16:59:31.486Z,40.60
2017-08-06T17:02:00.701Z,40.70
2017-08-06T17:04:29.592Z,40.80
2017-08-06T17:06:58.485Z,41.10
2017-08-06T17:09:27.374Z,41.30
2017-08-06T17:11:56.317Z,41.50
2017-08-06T17:14:25.984Z,42.10
2017-08-06T17:16:54.874Z,41.90
2017-08-06T17:19:23.783Z,41.90
2017-08-06T17:21:52.686Z,42.00
2017-08-06T17:24:21.564Z,42.30
2017-08-06T17:26:50.449Z,42.70
2017-08-06T17:29:19.337Z,42.80
2017-08-06T17:31:48.221Z,42.30
2017-08-06T17:34:18.585Z,42.10
2017-08-06T17:36:47.465Z,42.10
2017-08-06T17:39:16.362Z,42.00
2017-08-06T17:41:45.267Z,42.00
2017-08-06T17:44:14.932Z,42.30
2017-08-06T17:46:43.843Z,42.30
2017-08-06T17:49:12.731Z,42.50
2017-08-06T17:51:41.587Z,42.50
2017-08-06T17:54:10.484Z,42.40
2017-08-06T17:56:39.386Z,42.30
2017-08-06T17:59:08.282Z,42.40
2017-08-06T18:01:37.160Z,42.50
2017-08-06T18:04:06.907Z,42.60
2017-08-06T18:06:35.796Z,43.40
2017-08-06T18:09:04.777Z,44.00
2017-08-06T18:11:33.876Z,43.30
2017-08-06T18:14:02.976Z,43.70
2017-08-06T18:16:32.156Z,44.20
2017-08-06T18:19:01.375Z,44.20
2017-08-06T18:21:30.514Z,44.50
2017-08-06T18:23:59.604Z,44.50
2017-08-06T18:26:29.557Z,44.60
2017-08-06T18:28:58.884Z,44.60
2017-08-06T18:31:28.136Z,44.60
2017-08-06T18:33:58.001Z,44.50
2017-08-06T18:36:27.647Z,44.40
2017-08-06T18:38:57.548Z,45.20
2017-08-06T18:41:26.774Z,44.80
2017-08-06T18:43:56.690Z,44.80
2017-08-06T18:46:25.728Z,44.70
2017-08-06T18:48:55.240Z,44.90
2017-08-06T18:51:24.272Z,45.10
2017-08-06T18:53:53.921Z,45.20
2017-08-06T18:56:22.825Z,45.20
2017-08-06T18:58:51.722Z,45.00
2017-08-06T19:01:20.627Z,45.00
2017-08-06T19:03:49.527Z,44.70
2017-08-06T19:06:18.418Z,44.80
2017-08-06T19:08:47.321Z,45.00
2017-08-06T19:11:16.990Z,45.20
2017-08-06T19:13:45.892Z,45.10
2017-08-06T19:16:14.794Z,45.40
2017-08-06T19:18:43.705Z,45.60
2017-08-06T19:21:12.594Z,45.90
2017-08-06T19:23:41.490Z,46.00
2017-08-06T19:26:10.386Z,46.10
2017-08-06T19:28:39.271Z,46.20
2017-08-06T19:31:08.162Z,46.20
2017-08-06T19:33:37.049Z,46.40
2017-08-06T19:36:05.932Z,46.50
2017-08-06T19:38:34.840Z,46.70
2017-08-06T19:41:03.750Z,46.90
2017-08-06T19:43:33.379Z,47.70
2017-08-06T19:46:02.090Z,47.70
2017-08-06T19:48:30.931Z,48.10
2017-08-06T19:51:00.563Z,49.10
2017-08-06T19:53:29.276Z,49.00
2017-08-06T19:55:58.171Z,49.30
2017-08-06T19:58:27.061Z,49.80
2017-08-06T20:00:55.953Z,50.40
2017-08-06T20:03:24.851Z,50.80
2017-08-06T20:05:53.705Z,51.00
2017-08-06T20:08:22.608Z,51.40
2017-08-06T20:10:51.516Z,51.50
2017-08-06T20:13:20.488Z,51.60
2017-08-06T20:15:49.383Z,51.60
2017-08-06T20:18:18.281Z,51.80
2017-08-06T20:20:47.986Z,52.30
2017-08-06T20:23:16.968Z,52.50
2017-08-06T20:25:45.851Z,52.70
2017-08-06T20:28:15.527Z,53.10
2017-08-06T20:30:44.409Z,53.10
2017-08-06T20:33:13.306Z,53.10
2017-08-06T20:35:42.197Z,53.10
2017-08-06T20:38:11.083Z,53.20
2017-08-06T20:40:39.693Z,53.40
2017-08-06T20:43:08.573Z,53.70
2017-08-06T20:45:37.463Z,53.70
2017-08-06T20:48:07.148Z,54.30
2017-08-06T20:50:36.032Z,54.30
2017-08-06T20:53:04.926Z,54.80
2017-08-06T20:55:33.809Z,55.10
2017-08-06T20:58:02.690Z,55.40
2017-08-06T21:00:31.573Z,55.70
2017-08-06T21:03:00.452Z,55.90
2017-08-06T21:05:30.093Z,56.70
2017-08-06T21:07:58.969Z,56.50
2017-08-06T21:10:27.860Z,56.80
2017-08-06T21:12:56.754Z,56.80
2017-08-06T21:15:25.646Z,56.80
2017-08-06T21:17:55.248Z,56.80
2017-08-06T21:20:24.853Z,56.80
2017-08-06T21:22:54.498Z,57.20
2017-08-06T21:25:23.381Z,57.10
2017-08-06T21:27:52.241Z,57.50
2017-08-06T21:30:21.905Z,57.90
2017-08-06T21:32:50.802Z,57.90
2017-08-06T21:35:19.681Z,58.50
2017-08-06T21:37:48.590Z,59.00
2017-08-06T21:40:17.490Z,59.30
2017-08-06T21:42:46.374Z,59.30
2017-08-06T21:45:15.284Z,59.80
2017-08-06T21:47:44.165Z,59.80
2017-08-06T21:50:13.044Z,59.70
2017-08-06T21:52:41.927Z,59.60
2017-08-06T21:55:10.803Z,59.50
2017-08-06T21:57:39.684Z,59.50
2017-08-06T22:00:08.578Z,59.50
2017-08-06T22:02:37.464Z,59.50
2017-08-06T22:05:06.350Z,59.70
2017-08-06T22:07:35.224Z,60.00
2017-08-06T22:10:04.117Z,60.10
2017-08-06T22:12:33.769Z,60.50
2017-08-06T22:15:02.675Z,60.40
2017-08-06T22:17:31.568Z,60.70
2017-08-06T22:20:00.451Z,61.00
2017-08-06T22:22:29.338Z,61.20
2017-08-06T22:24:58.229Z,61.40
2017-08-06T22:27:27.119Z,61.40
2017-08-06T22:29:55.993Z,61.60
2017-08-06T22:32:24.878Z,61.80
2017-08-06T22:34:53.753Z,61.70
2017-08-06T22:37:23.421Z,61.70
2017-08-06T22:39:52.304Z,61.60
2017-08-06T22:42:21.202Z,61.70
2017-08-06T22:44:50.085Z,61.60
2017-08-06T22:47:19.050Z,61.70
2017-08-06T22:49:47.939Z,61.90
2017-08-06T22:52:16.828Z,62.00
2017-08-06T22:54:45.704Z,62.10
2017-08-06T22:57:14.580Z,62.30
2017-08-06T22:59:43.418Z,62.30
2017-08-06T23:02:12.259Z,62.30
2017-08-06T23:04:41.114Z,62.40
2017-08-06T23:07:10.002Z,62.80
2017-08-06T23:09:38.891Z,63.00
2017-08-06T23:12:07.772Z,63.20
2017-08-06T23:14:36.666Z,63.40
2017-08-06T23:17:05.544Z,63.60
2017-08-06T23:19:34.393Z,63.80
2017-08-06T23:22:03.278Z,64.10
2017-08-06T23:24:32.128Z,64.30
2017-08-06T23:27:01.012Z,64.50
2017-08-06T23:29:29.885Z,64.60
2017-08-06T23:31:59.532Z,65.00
2017-08-06T23:34:28.427Z,64.80
2017-08-06T23:36:57.305Z,65.30
2017-08-06T23:39:26.193Z,65.40
2017-08-06T23:41:55.072Z,65.30
2017-08-06T23:44:23.945Z,65.20
2017-08-06T23:46:52.825Z,65.10
2017-08-06T23:49:21.692Z,65.10
2017-08-06T23:51:50.599Z,65.10
2017-08-06T23:54:19.483Z,64.80
2017-08-06T23:56:48.370Z,64.80
2017-08-06T23:59:17.309Z,64.70
